»·PEaware :: DAL1093 KSEA-KMRY

DAL1093 :: KSEA-KMRY

FLIGHT INFORMATION

Flight Status: Arrived
Operator:
Delta Air Lines
More flights by this operator :: More flights under this callsign
Pilot: Ryan B. (8502)
Aircraft: BOEING 737-800
(B738)
More flights by this aircraft type
Origin: KSEA Seattle-Tacoma Intl
United States
Destination: KMRY Monterey Peninsula
United States
More flights between these airports :: More routes between these airports
Route: HAROB6 FEPOT OED J126 SNS
File this flight plan on PilotEdge
Remarks:
Altitude:
(Current/Filed)
35,000ft
Speed:
(Current/Filed)
453kts
Departed: 28-Dec-17 07:23 PM
Arrived: 28-Dec-17 09:10 PM
Distance/Time
Traveled:
652nm/1:47
Distance/Time
To Go:
Arrived

Flight Plot

Page will automatically refresh every two minutes.

Flight plan parsing failed; only flown route is shown


Map Options




Map Legend


Flown Route
Filed Route
Departure Airport
Arrival Airport
Navaid (VOR, NDB)
Fix

Horizontal Profiles

Position Reports

Time Latitude Longitude Heading Altitude Ground
Speed
28-Dec-17 19:11 47.448392 -122.303760 86 402ft 0kts
28-Dec-17 19:12 47.448392 -122.303760 86 402ft 0kts
28-Dec-17 19:13 47.448392 -122.303760 86 402ft 0kts
28-Dec-17 19:14 47.448392 -122.303760 86 402ft 0kts
28-Dec-17 19:15 47.448392 -122.303760 86 402ft 0kts
28-Dec-17 19:16 47.448392 -122.303760 86 402ft 0kts
28-Dec-17 19:17 47.448392 -122.303760 86 402ft 0kts
28-Dec-17 19:18 47.448392 -122.303760 86 402ft 0kts
28-Dec-17 19:19 47.448392 -122.303760 86 402ft 0kts
28-Dec-17 19:20 47.448392 -122.303760 86 402ft 0kts
28-Dec-17 19:21 47.448383 -122.303875 80 401ft 2kts
28-Dec-17 19:22 47.447981 -122.304377 2 400ft 2kts
28-Dec-17 19:23 47.447554 -122.304005 298 398ft 1kts
28-Dec-17 19:24 47.447544 -122.303977 298 398ft 0kts
28-Dec-17 19:25 47.447666 -122.304270 306 399ft 5kts
28-Dec-17 19:26 47.449917 -122.306236 5 408ft 14kts
28-Dec-17 19:27 47.454065 -122.306225 0 428ft 22kts
28-Dec-17 19:28 47.460717 -122.306136 3 438ft 30kts
28-Dec-17 19:29 47.460621 -122.307780 180 429ft 61kts
28-Dec-17 19:30 47.427160 -122.308624 180 1543ft 166kts
28-Dec-17 19:31 47.384575 -122.308448 180 3218ft 179kts
28-Dec-17 19:32 47.339529 -122.311888 196 4599ft 210kts
28-Dec-17 19:33 47.312390 -122.380431 258 6324ft 249kts
28-Dec-17 19:34 47.307302 -122.479114 276 8764ft 268kts
28-Dec-17 19:35 47.310601 -122.580187 273 10951ft 289kts
28-Dec-17 19:36 47.313549 -122.687976 271 13474ft 295kts
28-Dec-17 19:37 47.307392 -122.802867 250 16114ft 302kts
28-Dec-17 19:38 47.277134 -122.914332 251 19061ft 306kts
28-Dec-17 19:39 47.245936 -123.028300 243 21773ft 314kts
28-Dec-17 19:40 47.177943 -123.112618 224 24187ft 335kts
28-Dec-17 19:41 47.103166 -123.194350 223 26382ft 345kts
28-Dec-17 19:42 47.002589 -123.213793 189 28609ft 391kts
28-Dec-17 19:43 46.896603 -123.206481 189 30590ft 388kts
28-Dec-17 19:44 46.797850 -123.199918 189 32182ft 387kts
28-Dec-17 19:45 46.692882 -123.192959 190 33679ft 385kts
28-Dec-17 19:46 46.587415 -123.185960 190 34993ft 383kts
28-Dec-17 19:47 46.478200 -123.178824 189 35037ft 412kts
28-Dec-17 19:48 46.360399 -123.170989 188 35043ft 442kts
28-Dec-17 19:49 46.237690 -123.162766 188 35074ft 448kts
28-Dec-17 19:50 46.122511 -123.155118 188 35080ft 447kts
28-Dec-17 19:51 45.999195 -123.146932 188 35080ft 447kts
28-Dec-17 19:52 45.879894 -123.139007 188 35081ft 447kts
28-Dec-17 19:53 45.762737 -123.131226 188 35096ft 446kts
28-Dec-17 19:54 45.645870 -123.123465 188 35098ft 446kts
28-Dec-17 19:55 45.527996 -123.115636 188 35099ft 446kts
28-Dec-17 19:56 45.408849 -123.107725 188 35098ft 448kts
28-Dec-17 19:57 45.288857 -123.099756 188 35093ft 449kts
28-Dec-17 19:58 45.165743 -123.091574 188 35092ft 449kts
28-Dec-17 19:59 45.041498 -123.083324 188 35101ft 450kts
28-Dec-17 20:00 44.917998 -123.075123 187 35111ft 450kts
28-Dec-17 20:01 44.800053 -123.067264 187 35109ft 451kts
28-Dec-17 20:02 44.680559 -123.059317 187 35127ft 449kts
28-Dec-17 20:03 44.557943 -123.051166 187 35146ft 450kts
28-Dec-17 20:04 44.434365 -123.042956 187 35155ft 451kts
28-Dec-17 20:05 44.311157 -123.034764 187 35173ft 451kts
28-Dec-17 20:06 44.188613 -123.026617 187 35174ft 452kts
28-Dec-17 20:07 44.063822 -123.018321 187 35175ft 452kts
28-Dec-17 20:08 43.938840 -123.010006 187 35176ft 453kts
28-Dec-17 20:09 43.817642 -123.001936 187 35172ft 452kts
28-Dec-17 20:10 43.694898 -122.993780 187 35172ft 452kts
28-Dec-17 20:11 43.569292 -122.985427 187 35212ft 454kts
28-Dec-17 20:12 43.444053 -122.977100 187 35237ft 453kts
28-Dec-17 20:13 43.318673 -122.968755 187 35238ft 454kts
28-Dec-17 20:14 43.193179 -122.960404 186 35238ft 454kts
28-Dec-17 20:15 43.067664 -122.952052 187 35239ft 454kts
28-Dec-17 20:16 42.942437 -122.943737 186 35259ft 454kts
28-Dec-17 20:17 42.822534 -122.935747 185 35283ft 454kts
28-Dec-17 20:18 42.700683 -122.927637 185 35293ft 454kts
28-Dec-17 20:19 42.578134 -122.919483 185 35302ft 454kts
28-Dec-17 20:20 42.452676 -122.905987 175 35316ft 466kts
28-Dec-17 20:21 42.326493 -122.867921 176 35304ft 466kts
28-Dec-17 20:22 42.202610 -122.831635 176 35304ft 466kts
28-Dec-17 20:23 42.076419 -122.795908 176 35310ft 466kts
28-Dec-17 20:24 41.950359 -122.760273 176 35321ft 466kts
28-Dec-17 20:25 41.833411 -122.727212 176 35322ft 466kts
28-Dec-17 20:26 41.711388 -122.692708 176 35324ft 466kts
28-Dec-17 20:27 41.587015 -122.657537 176 35324ft 466kts
28-Dec-17 20:28 41.462424 -122.622299 176 35325ft 466kts
28-Dec-17 20:29 41.336848 -122.586777 176 35326ft 466kts
28-Dec-17 20:30 41.216252 -122.552658 176 35321ft 466kts
28-Dec-17 20:31 41.090451 -122.517067 175 35298ft 466kts
28-Dec-17 20:32 40.964000 -122.481293 174 35275ft 470kts
28-Dec-17 20:33 40.842265 -122.446824 174 35271ft 470kts
28-Dec-17 20:34 40.716657 -122.411271 174 35271ft 470kts
28-Dec-17 20:35 40.590431 -122.375537 174 35272ft 470kts
28-Dec-17 20:36 40.466228 -122.340359 175 35259ft 469kts
28-Dec-17 20:37 40.339088 -122.304355 175 35264ft 470kts
28-Dec-17 20:38 40.211512 -122.268228 175 35270ft 470kts
28-Dec-17 20:39 40.084924 -122.231197 169 35263ft 475kts
28-Dec-17 20:40 39.960197 -122.178699 169 35273ft 475kts
28-Dec-17 20:41 39.838829 -122.128584 169 35272ft 475kts
28-Dec-17 20:42 39.714011 -122.077024 169 35272ft 475kts
28-Dec-17 20:43 39.588916 -122.025338 169 35273ft 475kts
28-Dec-17 20:44 39.464882 -121.974078 169 35276ft 475kts
28-Dec-17 20:45 39.339657 -121.922314 169 35284ft 475kts
28-Dec-17 20:46 39.214780 -121.870683 169 35278ft 475kts
28-Dec-17 20:47 39.089341 -121.818808 169 35277ft 475kts
28-Dec-17 20:48 38.964195 -121.767069 167 35276ft 475kts
28-Dec-17 20:49 38.849020 -121.719404 166 35268ft 472kts
28-Dec-17 20:50 38.731647 -121.670823 166 35267ft 472kts
28-Dec-17 20:51 38.609338 -121.620203 166 35273ft 472kts
28-Dec-17 20:52 38.492727 -121.571931 166 35274ft 472kts
28-Dec-17 20:53 38.368638 -121.553572 186 35248ft 444kts
28-Dec-17 20:54 38.253334 -121.557152 186 33885ft 410kts
28-Dec-17 20:55 38.142578 -121.560367 186 31877ft 395kts
28-Dec-17 20:56 38.033435 -121.563551 186 29903ft 399kts
28-Dec-17 20:57 37.924950 -121.566687 185 27935ft 402kts
28-Dec-17 20:58 37.818489 -121.569768 185 26006ft 404kts
28-Dec-17 20:59 37.711010 -121.572872 184 23846ft 397kts
28-Dec-17 21:00 37.604365 -121.575957 184 21921ft 379kts
28-Dec-17 21:01 37.501292 -121.578940 184 20041ft 370kts
28-Dec-17 21:02 37.401630 -121.581828 184 18225ft 359kts
28-Dec-17 21:03 37.305010 -121.584623 184 16475ft 350kts
28-Dec-17 21:04 37.210692 -121.587355 183 14764ft 341kts
28-Dec-17 21:05 37.117577 -121.590052 183 13074ft 332kts
28-Dec-17 21:06 37.028546 -121.592642 182 11461ft 325kts
28-Dec-17 21:07 36.940460 -121.595185 182 9861ft 312kts
28-Dec-17 21:08 36.857236 -121.597589 181 8340ft 287kts
28-Dec-17 21:09 36.781295 -121.599795 181 6967ft 269kts
28-Dec-17 21:10 36.707660 -121.601927 181 5633ft 263kts
28-Dec-17 21:11 36.651538 -121.622199 205 4932ft 240kts
28-Dec-17 21:12 36.598728 -121.673377 228 4479ft 182kts
28-Dec-17 21:13 36.573487 -121.723447 245 3358ft 165kts
28-Dec-17 21:14 36.564633 -121.767279 276 2260ft 152kts
28-Dec-17 21:15 36.580266 -121.824625 293 501ft 148kts
28-Dec-17 21:16 36.589570 -121.852854 215 168ft 8kts

Navigation Log

Ident Type
Flight plan parsing failed, navigation log unavailable